McNary Field
KSLE : rendu visible

Aérodrome :











RETROUVEZ-NOUS SUR...

 
LOGIN :

S'inscrire | Disclaimer

   EN    FR    IT 

 









Légende :    VFR   VFR Marginal   IFR   IFR Intensif   IFR Très Intensif
Visi : 
Plafond : 
>= 8 km
>= 3000ft
5 à 8 km
1000 à 3000 ft
1500m à 5 km
500 à 1000 ft
800 à 1500m
200 à 500 ft
< 800m
< 200 ft
Symboles :   Orages  Brouillard  Fortes neiges  Fortes précipitations  Vent > 20 kt






- Altitude de l'aérodrome : 214 ft


KSLE - McNary Field

DERNIER METAR :
  • 221756Z 12003KT 10SM CLR 04/02 A3023 RMK AO2 SLP238 I6001 T00440022 10044 21017 50014

METARs EXPIRÉS :
  • 221656Z 00000KT 10SM FEW004 03/01 A3024 RMK AO2 SLP241 T00280011
  • 221556Z 00000KT 10SM CLR M01/M01 A3021 RMK AO2 SLP232 T10061011

TAF KSLE
Valide du 22 à 18h jusqu'au 23 à 18h UTC


221722Z 2218/2318 00000KT P6SM FEW004
FM231000 18011KT P6SM OVC050
FM231200 18016G23KT P6SM -RA OVC025



MET'MAP, la Météo Aéronautique d'un coup d'oeil ! - Copyright ORBIFLY Décembre 2007 - Disclaimer

ORBIFLY MET'MAP TEAM :

Programmation & Développement : Alexandra Zaïnal
Sur une idée originale de : Baudouin d'Aumeries
Assistance à la programmation : Marc-Olivier Méhu
Soutien technique & logistique : Manuel Goepfert

Contact : metmap@orbifly.com




SOURCES & CREDITS :

   NOAA       Earth
Advisory